TimeHST,TemperatureF,Dew PointF,Humidity,Sea Level PressureIn,VisibilityMPH,Wind Direction,Wind SpeedMPH,Gust SpeedMPH,PrecipitationIn,Events,Conditions,WindDirDegrees,DateUTC
12:56 AM,66.0,51.1,59,30.20,10.0,Calm,Calm,-,N/A,,Clear,0,2013-03-03 10:56:00
1:56 AM,66.9,50.0,54,30.17,10.0,East,5.8,-,N/A,,Clear,80,2013-03-03 11:56:00
2:56 AM,64.9,48.0,54,30.16,10.0,ENE,4.6,-,N/A,,Clear,70,2013-03-03 12:56:00
3:56 AM,66.0,46.9,50,30.14,10.0,Calm,Calm,-,N/A,,Scattered Clouds,0,2013-03-03 13:56:00
4:56 AM,66.0,48.0,52,30.13,10.0,NNE,3.5,-,N/A,,Clear,30,2013-03-03 14:56:00
5:56 AM,62.1,48.0,60,30.14,10.0,East,3.5,-,N/A,,Clear,100,2013-03-03 15:56:00
6:56 AM,63.0,50.0,63,30.16,10.0,East,3.5,-,N/A,,Mostly Cloudy,80,2013-03-03 16:56:00
7:56 AM,69.1,52.0,54,30.18,10.0,Calm,Calm,-,N/A,,Mostly Cloudy,0,2013-03-03 17:56:00
8:56 AM,73.9,51.1,45,30.20,10.0,Calm,Calm,-,N/A,,Partly Cloudy,0,2013-03-03 18:56:00
9:56 AM,73.9,53.1,48,30.20,10.0,WSW,4.6,-,N/A,,Mostly Cloudy,250,2013-03-03 19:56:00
10:56 AM,75.9,55.0,48,30.20,10.0,WNW,6.9,-,N/A,,Scattered Clouds,290,2013-03-03 20:56:00
11:56 AM,77.0,55.0,47,30.18,10.0,West,10.4,-,N/A,,Mostly Cloudy,270,2013-03-03 21:56:00
12:56 PM,79.0,55.0,44,30.16,10.0,West,11.5,-,N/A,,Mostly Cloudy,270,2013-03-03 22:56:00
1:56 PM,78.1,54.0,43,30.14,10.0,WNW,11.5,-,N/A,,Mostly Cloudy,300,2013-03-03 23:56:00
2:56 PM,78.1,55.0,45,30.13,10.0,WNW,11.5,-,N/A,,Partly Cloudy,290,2013-03-04 00:56:00
3:56 PM,78.1,55.9,46,30.12,10.0,West,5.8,-,N/A,,Clear,280,2013-03-04 01:56:00
4:56 PM,78.1,55.9,46,30.12,10.0,WSW,10.4,-,N/A,,Partly Cloudy,240,2013-03-04 02:56:00
5:56 PM,78.1,55.0,45,30.13,10.0,WNW,9.2,-,N/A,,Clear,300,2013-03-04 03:56:00
6:56 PM,75.9,57.0,52,30.14,10.0,NNW,10.4,-,N/A,,Clear,340,2013-03-04 04:56:00
7:56 PM,71.1,55.0,57,30.16,10.0,SE,5.8,-,N/A,,Clear,140,2013-03-04 05:56:00
8:56 PM,69.1,57.0,65,30.17,10.0,SE,4.6,-,N/A,,Clear,140,2013-03-04 06:56:00
9:56 PM,66.9,54.0,63,30.18,10.0,NNE,4.6,-,N/A,,Clear,20,2013-03-04 07:56:00
10:56 PM,66.0,55.0,68,30.18,10.0,East,4.6,-,N/A,,Clear,100,2013-03-04 08:56:00
11:56 PM,66.0,57.0,73,30.17,10.0,East,4.6,-,N/A,,Clear,80,2013-03-04 09:56:00